P2NTZ AYGA-AIBA

Flight info

Callsign P2NTZ
Flight time N/A
Altitude 13000
Route 0615S14459E
Aircraft C208/L-SDFGR/C

Departure

Time 2026-05-07 19:09
Airport Goroka Airport (AYGA)

Arrival

Time N/A
Airport AIBA
Time Latitude Longitude Altitude Speed Heading
2026-05-07 18:51 -6.07873 145.39281 5222 ft 0 kts 175°
2026-05-07 19:02 -6.07879 145.39282 5221 ft 5 kts 176°
2026-05-07 19:02 -6.07914 145.39267 5217 ft 5 kts 224°
2026-05-07 19:02 -6.07927 145.39223 5216 ft 6 kts 293°
2026-05-07 19:03 -6.07907 145.39211 5220 ft 4 kts 355°
2026-05-07 19:03 -6.07864 145.39207 5226 ft 9 kts 354°
2026-05-07 19:03 -6.07768 145.39197 5239 ft 18 kts 353°
2026-05-07 19:03 -6.07629 145.39185 5252 ft 16 kts 355°
2026-05-07 19:04 -6.07560 145.39168 5260 ft 10 kts 326°
2026-05-07 19:04 -6.07534 145.39177 5263 ft 8 kts 161°
2026-05-07 19:04 -6.07550 145.39179 5261 ft 0 kts 175°
2026-05-07 19:08 -6.07557 145.39180 5258 ft 9 kts 174°
2026-05-07 19:08 -6.07797 145.39200 5232 ft 60 kts 176°
2026-05-07 19:08 -6.08348 145.39253 5260 ft 89 kts 173°
2026-05-07 19:08 -6.08961 145.39343 5484 ft 88 kts 169°
2026-05-07 19:09 -6.09537 145.39508 5735 ft 85 kts 148°
2026-05-07 19:09 -6.09827 145.40002 5921 ft 89 kts 90°
2026-05-07 19:09 -6.09737 145.40609 6133 ft 89 kts 68°
2026-05-07 19:09 -6.09218 145.40980 6249 ft 100 kts
2026-05-07 19:10 -6.08527 145.40810 6340 ft 103 kts 345°
2026-05-07 19:10 -6.07805 145.40617 6267 ft 108 kts 343°
2026-05-07 19:10 -6.07087 145.40425 6258 ft 106 kts 348°
2026-05-07 19:10 -6.06358 145.40296 6207 ft 107 kts 348°
2026-05-07 19:11 -6.05776 145.39847 6083 ft 111 kts 293°
2026-05-07 19:11 -6.05841 145.39120 5966 ft 108 kts 234°
2026-05-07 19:11 -6.06465 145.38963 5763 ft 94 kts 170°
2026-05-07 19:11 -6.07097 145.39028 5504 ft 91 kts 174°
2026-05-07 19:12 -6.07724 145.39084 5289 ft 87 kts 175°
2026-05-07 19:12 -6.08289 145.39135 5202 ft 77 kts 175°
2026-05-07 19:12 -6.08838 145.39186 5190 ft 84 kts 176°
2026-05-07 19:12 -6.09391 145.39248 5380 ft 77 kts 176°
2026-05-07 19:13 -6.09919 145.39305 5543 ft 76 kts 170°
2026-05-07 19:13 -6.10374 145.39498 5710 ft 76 kts 121°
2026-05-07 19:13 -6.10393 145.39838 5795 ft 77 kts 77°
2026-05-07 19:13 -6.10272 145.40560 5994 ft 77 kts 78°
2026-05-07 19:14 -6.10121 145.40880 6072 ft 80 kts 43°
2026-05-07 19:14 -6.09582 145.40918 6147 ft 88 kts 341°
2026-05-07 19:14 -6.08951 145.40793 6228 ft 95 kts 342°
2026-05-07 19:14 -6.08315 145.40598 6315 ft 100 kts 342°
2026-05-07 19:15 -6.07591 145.40401 6333 ft 113 kts 345°
2026-05-07 19:15 -6.06795 145.40270 6349 ft 121 kts 353°
2026-05-07 19:15 -6.06047 145.39984 6276 ft 111 kts 311°
2026-05-07 19:15 -6.05902 145.39302 6165 ft 102 kts 246°
2026-05-07 19:16 -6.06484 145.38946 5869 ft 107 kts 175°
2026-05-07 19:16 -6.07240 145.39042 5505 ft 111 kts 173°
2026-05-07 19:16 -6.08023 145.39111 5229 ft 113 kts 175°
2026-05-07 19:16 -6.08767 145.39175 5165 ft 97 kts 174°
2026-05-07 19:17 -6.09248 145.39216 5118 ft 25 kts 171°
2026-05-07 19:17 -6.09267 145.39215 5115 ft 5 kts
2026-05-07 19:17 -6.09198 145.39211 5124 ft 14 kts 354°
2026-05-07 19:17 -6.09072 145.39201 5136 ft 22 kts 357°
2026-05-07 19:18 -6.08903 145.39185 5153 ft 25 kts 353°
2026-05-07 19:18 -6.08748 145.39172 5166 ft 22 kts 354°
2026-05-07 19:18 -6.08576 145.39158 5175 ft 27 kts 356°
2026-05-07 19:18 -6.08384 145.39140 5192 ft 28 kts 354°
2026-05-07 19:19 -6.08190 145.39119 5211 ft 29 kts 353°
2026-05-07 19:19 -6.07987 145.39100 5229 ft 30 kts 354°
2026-05-07 19:19 -6.07787 145.39089 5253 ft 28 kts 356°
2026-05-07 19:19 -6.07603 145.39072 5259 ft 22 kts 353°
2026-05-07 19:20 -6.07527 145.39089 5267 ft 5 kts 44°
2026-05-07 19:20 -6.07506 145.39110 5269 ft 7 kts 46°
2026-05-07 19:20 -6.07517 145.39177 5266 ft 18 kts 172°
2026-05-07 19:20 -6.07695 145.39194 5243 ft 32 kts 176°
2026-05-07 19:21 -6.07932 145.39209 5216 ft 31 kts 174°
2026-05-07 19:21 -6.07983 145.39215 5210 ft 0 kts 173°
2026-05-07 19:21 -6.07961 145.39213 5213 ft 5 kts 179°
2026-05-07 19:21 -6.07959 145.39230 5212 ft 5 kts 90°
2026-05-07 19:22 -6.07956 145.39275 5212 ft 6 kts 76°
2026-05-07 19:22 -6.07924 145.39269 5216 ft 4 kts 297°
2026-05-07 19:22 -6.07923 145.39266 5216 ft 0 kts 281°
2026-05-07 19:22 -6.07923 145.39261 5216 ft 2 kts 264°
2026-05-07 19:23 -6.07923 145.39260 5217 ft 0 kts 262°
2026-05-07 19:24 -6.07928 145.39242 5215 ft 12 kts 252°
2026-05-07 19:24 -6.07906 145.39210 5219 ft 4 kts 352°
2026-05-07 19:25 -6.07863 145.39207 5225 ft 15 kts 354°
2026-05-07 19:25 -6.07703 145.39191 5245 ft 21 kts 355°
2026-05-07 19:25 -6.07595 145.39182 5254 ft 15 kts 356°
2026-05-07 19:25 -6.07534 145.39160 5261 ft 2 kts 25°
2026-05-07 19:26 -6.07550 145.39179 5259 ft 7 kts 176°
2026-05-07 19:26 -6.07554 145.39179 5259 ft 0 kts 174°
2026-05-07 19:31 -6.07593 145.39183 5255 ft 23 kts 175°
2026-05-07 19:31 -6.07931 145.39212 5216 ft 74 kts 175°
2026-05-07 19:31 -6.08549 145.39271 5283 ft 96 kts 172°
2026-05-07 19:32 -6.09209 145.39354 5523 ft 98 kts 169°
2026-05-07 19:32 -6.09751 145.39791 5718 ft 109 kts 113°
2026-05-07 19:32 -6.09796 145.40550 5980 ft 115 kts 68°
2026-05-07 19:32 -6.09183 145.41053 6191 ft 121 kts
2026-05-07 19:33 -6.08426 145.40753 6397 ft 125 kts 303°
2026-05-07 19:33 -6.08205 145.39913 6627 ft 124 kts 270°
2026-05-07 19:33 -6.08225 145.39053 6853 ft 124 kts 264°
2026-05-07 19:33 -6.08293 145.38196 7115 ft 123 kts 246°
2026-05-07 19:34 -6.08736 145.37448 7295 ft 128 kts 233°
2026-05-07 19:34 -6.09238 145.36737 7559 ft 124 kts 231°
2026-05-07 19:34 -6.09712 145.36026 7783 ft 121 kts 239°
2026-05-07 19:34 -6.10074 145.35265 7948 ft 121 kts 239°
2026-05-07 19:35 -6.10443 145.34492 8124 ft 125 kts 239°
2026-05-07 19:35 -6.10831 145.33694 8283 ft 128 kts 242°
2026-05-07 19:35 -6.11200 145.32871 8451 ft 130 kts 243°
2026-05-07 19:35 -6.11575 145.32049 8634 ft 129 kts 244°
2026-05-07 19:36 -6.11932 145.31219 8788 ft 130 kts 246°
2026-05-07 19:36 -6.12288 145.30383 8922 ft 131 kts 242°
2026-05-07 19:36 -6.12660 145.29551 9114 ft 130 kts 242°
2026-05-07 19:36 -6.13069 145.28726 9270 ft 134 kts 237°
2026-05-07 19:37 -6.13441 145.27865 9457 ft 135 kts 249°
2026-05-07 19:37 -6.13771 145.26987 9658 ft 133 kts 243°
2026-05-07 19:37 -6.14197 145.26160 9829 ft 133 kts 237°
2026-05-07 19:37 -6.14669 145.25355 9985 ft 134 kts 240°
2026-05-07 19:38 -6.15078 145.24514 10103 ft 137 kts 242°
2026-05-07 19:38 -6.15527 145.23651 10251 ft 138 kts 240°
2026-05-07 19:38 -6.15959 145.22793 10398 ft 140 kts 242°
2026-05-07 19:38 -6.16347 145.21883 10624 ft 142 kts 248°
2026-05-07 19:39 -6.16715 145.20941 10770 ft 148 kts 246°
2026-05-07 19:39 -6.17081 145.19964 10952 ft 151 kts 248°
2026-05-07 19:39 -6.17457 145.18948 11109 ft 155 kts 247°
2026-05-07 19:39 -6.17853 145.17946 11301 ft 156 kts 245°
2026-05-07 19:40 -6.18270 145.16939 11531 ft 155 kts 245°
2026-05-07 19:40 -6.18719 145.15943 11687 ft 159 kts 243°
2026-05-07 19:40 -6.19197 145.14935 11858 ft 161 kts 241°
2026-05-07 19:40 -6.19704 145.13939 11982 ft 159 kts 240°
2026-05-07 19:41 -6.20219 145.12962 12183 ft 157 kts 239°
2026-05-07 19:41 -6.20717 145.11984 12368 ft 157 kts 242°
2026-05-07 19:41 -6.21163 145.10978 12527 ft 160 kts 244°
2026-05-07 19:41 -6.21617 145.09949 12688 ft 162 kts 243°
2026-05-07 19:42 -6.22075 145.08915 12905 ft 160 kts 244°
2026-05-07 19:42 -6.22560 145.07909 13100 ft 160 kts 243°
2026-05-07 19:42 -6.23199 145.06991 13096 ft 166 kts 216°
2026-05-07 19:42 -6.24284 145.06642 12748 ft 168 kts 171°
2026-05-07 19:43 -6.25321 145.07037 12488 ft 156 kts 148°
2026-05-07 19:43 -6.26242 145.07602 11989 ft 161 kts 133°
2026-05-07 19:43 -6.26603 145.08648 11594 ft 158 kts 85°
2026-05-07 19:43 -6.26059 145.09522 11348 ft 152 kts 30°
2026-05-07 19:44 -6.25044 145.09703 11134 ft 144 kts
2026-05-07 19:44 -6.24063 145.09868 10762 ft 149 kts 31°
2026-05-07 19:44 -6.23480 145.10659 10501 ft 142 kts 82°
2026-05-07 19:44 -6.23734 145.11590 10210 ft 146 kts 131°
2026-05-07 19:45 -6.24649 145.11954 9900 ft 150 kts 185°
2026-05-07 19:45 -6.25523 145.11353 9398 ft 164 kts 238°
2026-05-07 19:45 -6.25704 145.10253 8987 ft 162 kts 284°
2026-05-07 19:45 -6.25063 145.09362 8497 ft 160 kts 324°
2026-05-07 19:46 -6.24121 145.08835 8167 ft 149 kts 329°
2026-05-07 19:46 -6.23505 145.08047 7801 ft 146 kts 286°
2026-05-07 19:46 -6.23443 145.07054 7593 ft 135 kts 267°
2026-05-07 19:46 -6.23441 145.06114 7233 ft 140 kts 272°
2026-05-07 19:47 -6.23514 145.05175 6991 ft 131 kts 255°
2026-05-07 19:47 -6.23886 145.04322 6726 ft 130 kts 248°
2026-05-07 19:47 -6.24200 145.03493 6673 ft 124 kts 251°
2026-05-07 19:47 -6.24439 145.02674 6610 ft 119 kts 256°
2026-05-07 19:48 -6.24688 145.01926 6636 ft 111 kts 244°
2026-05-07 19:48 -6.24988 145.01259 6744 ft 98 kts 248°
2026-05-07 19:48 -6.25239 145.00637 6782 ft 96 kts 242°
2026-05-07 19:48 -6.25520 145.00036 6807 ft 92 kts 246°
2026-05-07 19:49 -6.25831 144.99488 6737 ft 89 kts 230°
2026-05-07 19:49 -6.26206 144.99061 6627 ft 77 kts 227°
2026-05-07 19:49 -6.26525 144.98708 6610 ft 50 kts 230°
2026-05-07 19:49 -6.26602 144.98617 6640 ft 4 kts 117°
2026-05-07 19:50 -6.26567 144.98694 6619 ft 11 kts 108°
2026-05-07 19:50 -6.26563 144.98731 6617 ft 9 kts 326°
2026-05-07 19:50 -6.26557 144.98727 6616 ft 0 kts 304°
2026-05-07 19:51 -6.26568 144.98743 6618 ft 0 kts 304°
2026-05-07 20:09 -6.26565 144.98737 6618 ft 8 kts 300°
2026-05-07 20:10 -6.26618 144.98642 6638 ft 7 kts 235°
2026-05-07 20:10 -6.26647 144.98602 6652 ft 9 kts 237°
2026-05-07 20:10 -6.26635 144.98583 6651 ft 0 kts 46°
2026-05-07 20:11 -6.26495 144.98745 6601 ft 63 kts 48°
2026-05-07 20:11 -6.26105 144.99154 6620 ft 88 kts 43°
2026-05-07 20:12 -6.25642 144.99575 6756 ft 93 kts 39°
2026-05-07 20:12 -6.25074 144.99987 6862 ft 107 kts 25°
2026-05-07 20:12 -6.24348 145.00091 7121 ft 107 kts 355°
2026-05-07 20:12 -6.23589 144.99903 7312 ft 117 kts 334°
2026-05-07 20:13 -6.22937 144.99379 7540 ft 125 kts 307°
2026-05-07 20:13 -6.22491 144.98605 7768 ft 129 kts 288°
2026-05-07 20:13 -6.22268 144.97699 7933 ft 140 kts 280°
2026-05-07 20:13 -6.22014 144.96751 8150 ft 137 kts 300°
2026-05-07 20:14 -6.21412 144.96022 8385 ft 137 kts 312°
2026-05-07 20:14 -6.20857 144.95259 8633 ft 133 kts 298°
2026-05-07 20:14 -6.20328 144.94510 8803 ft 139 kts 318°
2026-05-07 20:14 -6.19453 144.94028 8888 ft 149 kts 340°
2026-05-07 20:15 -6.18437 144.93697 8952 ft 160 kts 345°
2026-05-07 20:15 -6.17342 144.93421 9057 ft 163 kts 346°
2026-05-07 20:15 -6.16257 144.93123 9277 ft 160 kts 345°
2026-05-07 20:15 -6.15190 144.92796 9445 ft 162 kts 342°
2026-05-07 20:16 -6.14121 144.92422 9621 ft 162 kts 342°
2026-05-07 20:16 -6.13084 144.91997 9866 ft 160 kts 335°
2026-05-07 20:16 -6.12147 144.91415 10088 ft 159 kts 321°
2026-05-07 20:16 -6.11357 144.90621 10251 ft 163 kts 309°
2026-05-07 20:17 -6.10679 144.89745 10557 ft 155 kts 309°
2026-05-07 20:17 -6.09959 144.88917 10735 ft 159 kts 314°
2026-05-07 20:17 -6.09165 144.88147 10949 ft 159 kts 319°
2026-05-07 20:17 -6.08264 144.87453 11034 ft 167 kts 328°
2026-05-07 20:18 -6.07262 144.86868 11195 ft 166 kts 330°
2026-05-07 20:18 -6.06303 144.86217 11367 ft 167 kts 321°
2026-05-07 20:18 -6.05419 144.85469 11545 ft 166 kts 313°
2026-05-07 20:18 -6.04890 144.84471 11788 ft 162 kts 288°
2026-05-07 20:19 -6.04553 144.83403 12035 ft 158 kts 290°
2026-05-07 20:19 -6.04050 144.82421 12262 ft 155 kts 304°
2026-05-07 20:19 -6.03388 144.81577 12519 ft 153 kts 311°
2026-05-07 20:19 -6.02653 144.80781 12723 ft 156 kts 314°
2026-05-07 20:20 -6.01879 144.80017 12972 ft 155 kts 317°
2026-05-07 20:20 -6.01087 144.79333 13320 ft 146 kts 323°
2026-05-07 20:20 -6.00241 144.78737 13415 ft 158 kts 325°
2026-05-07 20:20 -5.99357 144.77993 13460 ft 169 kts 318°
2026-05-07 20:21 -5.98510 144.77132 13478 ft 180 kts 314°
2026-05-07 20:21 -5.97631 144.76186 13399 ft 191 kts 313°
2026-05-07 20:21 -5.96697 144.75221 13392 ft 194 kts 317°
2026-05-07 20:21 -5.95750 144.74296 13201 ft 180 kts 315°
2026-05-07 20:22 -5.94910 144.73431 12905 ft 167 kts 314°
2026-05-07 20:22 -5.94134 144.72628 12644 ft 158 kts 317°
2026-05-07 20:22 -5.93344 144.71884 12405 ft 151 kts 320°
2026-05-07 20:22 -5.92576 144.71171 12038 ft 156 kts 314°
2026-05-07 20:23 -5.91973 144.70234 11539 ft 164 kts 295°
2026-05-07 20:23 -5.91477 144.69210 11140 ft 163 kts 298°
2026-05-07 20:23 -5.90905 144.68230 10708 ft 163 kts 303°
2026-05-07 20:23 -5.90365 144.67223 10178 ft 168 kts 298°
2026-05-07 20:24 -5.89791 144.66188 9642 ft 169 kts 305°
2026-05-07 20:24 -5.89062 144.65272 9056 ft 170 kts 308°
2026-05-07 20:24 -5.88423 144.64295 8601 ft 164 kts 300°
2026-05-07 20:24 -5.87819 144.63323 8067 ft 165 kts 306°
2026-05-07 20:25 -5.87275 144.62367 7879 ft 149 kts 296°
2026-05-07 20:25 -5.86791 144.61461 7701 ft 146 kts 299°
2026-05-07 20:25 -5.86287 144.60594 7548 ft 144 kts 301°
2026-05-07 20:25 -5.85667 144.59806 7363 ft 146 kts 316°
2026-05-07 20:26 -5.84874 144.59182 7196 ft 143 kts 326°
2026-05-07 20:26 -5.84053 144.58629 6996 ft 140 kts 324°
2026-05-07 20:26 -5.83264 144.58034 6591 ft 144 kts 321°
2026-05-07 20:26 -5.82531 144.57410 6371 ft 133 kts 317°
2026-05-07 20:27 -5.81838 144.56875 6246 ft 121 kts 327°
2026-05-07 20:27 -5.81115 144.56503 6016 ft 114 kts 336°
2026-05-07 20:27 -5.80392 144.56212 5813 ft 105 kts 343°
2026-05-07 20:27 -5.79700 144.56032 5713 ft 99 kts 346°
2026-05-07 20:28 -5.79037 144.55878 5701 ft 98 kts 346°
2026-05-07 20:28 -5.78395 144.55691 5815 ft 95 kts 339°
2026-05-07 20:28 -5.77784 144.55389 5904 ft 99 kts 324°
2026-05-07 20:28 -5.77478 144.54785 5914 ft 97 kts 271°
2026-05-07 20:29 -5.77543 144.54113 5918 ft 95 kts 266°
2026-05-07 20:29 -5.77171 144.53587 5900 ft 101 kts 339°
2026-05-07 20:29 -5.76530 144.53741 5825 ft 101 kts 50°
2026-05-07 20:29 -5.76445 144.54361 5829 ft 88 kts 123°
2026-05-07 20:30 -5.76923 144.54702 5697 ft 91 kts 133°
2026-05-07 20:30 -5.77175 144.55286 5474 ft 89 kts 118°
2026-05-07 20:30 -5.77705 144.55583 5209 ft 91 kts 164°
2026-05-07 20:30 -5.78308 144.55738 5067 ft 83 kts 167°
2026-05-07 20:31 -5.78640 144.55802 5049 ft 8 kts 126°
2026-05-07 20:31 -5.78605 144.55801 5052 ft 10 kts 344°
2026-05-07 20:31 -5.78566 144.55749 5053 ft 11 kts 292°
2026-05-07 20:31 -5.78508 144.55706 5056 ft 6 kts
2026-05-07 20:32 -5.78500 144.55710 5056 ft 0 kts 46°
2026-05-07 20:47 -5.78495 144.55716 5054 ft 4 kts 62°
2026-05-07 20:47 -5.78524 144.55749 5055 ft 19 kts 163°
2026-05-07 20:48 -5.78576 144.55792 5053 ft 1 kts 350°
2026-05-07 20:48 -5.78575 144.55791 5053 ft 0 kts 349°
2026-05-07 20:48 -5.78568 144.55790 5053 ft 7 kts 347°
2026-05-07 20:49 -5.78379 144.55747 5062 ft 49 kts 349°
2026-05-07 20:49 -5.77952 144.55657 5123 ft 70 kts 346°
2026-05-07 20:49 -5.77464 144.55547 5265 ft 71 kts 348°
2026-05-07 20:49 -5.76957 144.55471 5378 ft 78 kts 346°
2026-05-07 20:50 -5.76380 144.55354 5507 ft 90 kts
2026-05-07 20:50 -5.75887 144.55686 5698 ft 94 kts 69°
2026-05-07 20:50 -5.75730 144.56392 5873 ft 109 kts 72°
2026-05-07 20:50 -5.75424 144.57117 6159 ft 118 kts 65°
2026-05-07 20:51 -5.75079 144.57891 6455 ft 123 kts 67°
2026-05-07 20:51 -5.74751 144.58682 6807 ft 123 kts 72°
2026-05-07 20:51 -5.74551 144.59520 7109 ft 124 kts 80°
2026-05-07 20:51 -5.74450 144.60377 7391 ft 123 kts 88°
2026-05-07 20:52 -5.74405 144.61240 7615 ft 127 kts 81°
2026-05-07 20:52 -5.74210 144.62087 7946 ft 122 kts 73°
2026-05-07 20:52 -5.73860 144.62891 8148 ft 130 kts 67°
2026-05-07 20:52 -5.73593 144.63776 8345 ft 135 kts 80°
2026-05-07 20:53 -5.73376 144.64693 8638 ft 136 kts 76°
2026-05-07 20:53 -5.73134 144.65611 8892 ft 136 kts 69°
2026-05-07 20:53 -5.72715 144.66481 9082 ft 142 kts 63°
2026-05-07 20:53 -5.72283 144.67422 9166 ft 153 kts 70°
2026-05-07 20:54 -5.71907 144.68452 9218 ft 161 kts 68°
2026-05-07 20:54 -5.71468 144.69496 9291 ft 165 kts 66°
2026-05-07 20:54 -5.71001 144.70545 9437 ft 164 kts 66°
2026-05-07 20:54 -5.70603 144.71633 9432 ft 171 kts 72°
2026-05-07 20:55 -5.70219 144.72753 9620 ft 165 kts 70°
2026-05-07 20:55 -5.69812 144.73794 9903 ft 156 kts 67°
2026-05-07 20:55 -5.69370 144.74785 10085 ft 156 kts 65°
2026-05-07 20:55 -5.68914 144.75774 10245 ft 157 kts 66°
2026-05-07 20:56 -5.68452 144.76771 10402 ft 159 kts 66°
2026-05-07 20:56 -5.67983 144.77787 10573 ft 161 kts 66°
2026-05-07 20:56 -5.67514 144.78805 10726 ft 160 kts 66°
2026-05-07 20:56 -5.67041 144.79820 10897 ft 162 kts 66°
2026-05-07 20:57 -5.66566 144.80852 11058 ft 163 kts 66°
2026-05-07 20:57 -5.66089 144.81885 11224 ft 164 kts 66°
2026-05-07 20:57 -5.65605 144.82930 11384 ft 166 kts 66°
2026-05-07 20:57 -5.65122 144.83975 11560 ft 165 kts 66°
2026-05-07 20:58 -5.64642 144.85014 11721 ft 163 kts 66°
2026-05-07 20:58 -5.64164 144.86048 11895 ft 165 kts 66°
2026-05-07 20:58 -5.63671 144.87110 11948 ft 172 kts 66°
2026-05-07 20:58 -5.63160 144.88218 11954 ft 178 kts 66°
2026-05-07 20:59 -5.62635 144.89353 11960 ft 181 kts 66°
2026-05-07 20:59 -5.62102 144.90504 11959 ft 182 kts 66°
2026-05-07 20:59 -5.61569 144.91652 11957 ft 181 kts 66°
2026-05-07 20:59 -5.61039 144.92798 11957 ft 180 kts 66°
2026-05-07 21:00 -5.60554 144.93852 11905 ft 149 kts 66°
2026-05-07 21:00 -5.60129 144.94772 11914 ft 145 kts 66°
2026-05-07 21:00 -5.59701 144.95689 11910 ft 147 kts 66°
2026-05-07 21:00 -5.59256 144.96650 11913 ft 155 kts 66°
2026-05-07 21:01 -5.58800 144.97634 11919 ft 153 kts 66°
2026-05-07 21:01 -5.58374 144.98562 11899 ft 140 kts 66°
2026-05-07 21:01 -5.57972 144.99431 11906 ft 139 kts 66°
2026-05-07 21:01 -5.57550 145.00336 11915 ft 149 kts 66°
2026-05-07 21:02 -5.57100 145.01305 11920 ft 155 kts 67°
2026-05-07 21:02 -5.56642 145.02297 11921 ft 158 kts 67°
2026-05-07 21:02 -5.56178 145.03301 11923 ft 159 kts 66°
2026-05-07 21:02 -5.55712 145.04307 11922 ft 158 kts 66°
2026-05-07 21:03 -5.55255 145.05297 11919 ft 153 kts 68°
2026-05-07 21:03 -5.54812 145.06253 11911 ft 150 kts 67°
2026-05-07 21:03 -5.54377 145.07201 11894 ft 150 kts 67°
2026-05-07 21:03 -5.53925 145.08153 11910 ft 152 kts 67°
2026-05-07 21:04 -5.53474 145.09117 11913 ft 153 kts 67°
2026-05-07 21:04 -5.53039 145.10074 11905 ft 151 kts 68°
2026-05-07 21:04 -5.52611 145.11037 11908 ft 151 kts 68°
2026-05-07 21:04 -5.52153 145.11977 11910 ft 151 kts 65°
2026-05-07 21:05 -5.51708 145.12936 11908 ft 151 kts 68°
2026-05-07 21:05 -5.51330 145.13911 11890 ft 147 kts 69°
2026-05-07 21:05 -5.50857 145.14802 11901 ft 147 kts 66°
2026-05-07 21:05 -5.50411 145.15737 11909 ft 152 kts 66°
2026-05-07 21:06 -5.49915 145.16685 11870 ft 154 kts 66°
2026-05-07 21:06 -5.49471 145.17649 11871 ft 152 kts 67°
2026-05-07 21:06 -5.49013 145.18609 11873 ft 151 kts 65°
2026-05-07 21:06 -5.48558 145.19554 11874 ft 152 kts 67°
2026-05-07 21:07 -5.48114 145.20520 11894 ft 156 kts 63°
2026-05-07 21:07 -5.47641 145.21483 11910 ft 149 kts 67°
2026-05-07 21:07 -5.47223 145.22413 11872 ft 146 kts 68°
2026-05-07 21:07 -5.46798 145.23338 11884 ft 148 kts 64°
2026-05-07 21:08 -5.46411 145.24337 11891 ft 153 kts 69°
2026-05-07 21:08 -5.45969 145.25297 11863 ft 152 kts 67°
2026-05-07 21:08 -5.45512 145.26231 11851 ft 148 kts 66°
2026-05-07 21:08 -5.45089 145.27199 11892 ft 153 kts 71°
2026-05-07 21:09 -5.44699 145.28202 11904 ft 153 kts 68°
2026-05-07 21:09 -5.44255 145.29176 11884 ft 156 kts 67°
2026-05-07 21:09 -5.43798 145.30171 11871 ft 157 kts 67°
2026-05-07 21:09 -5.43341 145.31166 11870 ft 157 kts 67°
2026-05-07 21:10 -5.42890 145.32145 11871 ft 156 kts 66°
2026-05-07 21:10 -5.42394 145.33115 11872 ft 156 kts 63°
2026-05-07 21:10 -5.41912 145.34094 11872 ft 157 kts 66°
2026-05-07 21:10 -5.41451 145.35086 11871 ft 157 kts 66°
2026-05-07 21:11 -5.40992 145.36078 11871 ft 157 kts 66°
2026-05-07 21:11 -5.40534 145.37068 11868 ft 156 kts 66°
2026-05-07 21:11 -5.39615 145.39050 11868 ft 157 kts 66°
2026-05-07 21:12 -5.39154 145.40044 11856 ft 157 kts 66°
2026-05-07 21:12 -5.38692 145.41039 11857 ft 158 kts 66°
2026-05-07 21:12 -5.38229 145.42038 11847 ft 158 kts 66°
2026-05-07 21:12 -5.37766 145.43037 11846 ft 158 kts 66°
2026-05-07 21:13 -5.37340 145.43964 11834 ft 134 kts 68°
2026-05-07 21:13 -5.36974 145.44759 11824 ft 116 kts 68°
2026-05-07 21:13 -5.36621 145.45512 11847 ft 129 kts 66°
2026-05-07 21:13 -5.36209 145.46387 11733 ft 153 kts 66°
2026-05-07 21:14 -5.35756 145.47375 11396 ft 151 kts 68°
2026-05-07 21:14 -5.35334 145.48302 11037 ft 143 kts 67°
2026-05-07 21:14 -5.34917 145.49201 10655 ft 141 kts 67°
2026-05-07 21:14 -5.34505 145.50088 10281 ft 139 kts 67°
2026-05-07 21:15 -5.34097 145.50965 9922 ft 138 kts 66°
2026-05-07 21:15 -5.33692 145.51836 9527 ft 137 kts 66°
2026-05-07 21:15 -5.33290 145.52705 9129 ft 137 kts 66°
2026-05-07 21:15 -5.32887 145.53572 8736 ft 137 kts 66°
2026-05-07 21:16 -5.32487 145.54434 8346 ft 136 kts 66°
2026-05-07 21:16 -5.32076 145.55313 7974 ft 142 kts 65°
2026-05-07 21:16 -5.31668 145.56192 7602 ft 139 kts 66°
2026-05-07 21:16 -5.31259 145.57077 7217 ft 137 kts 66°
2026-05-07 21:17 -5.30864 145.57929 6853 ft 136 kts 66°
2026-05-07 21:17 -5.30466 145.58787 6484 ft 135 kts 66°
2026-05-07 21:17 -5.30070 145.59641 6105 ft 135 kts 66°
2026-05-07 21:17 -5.29675 145.60491 5719 ft 134 kts 66°
2026-05-07 21:18 -5.29268 145.61331 5333 ft 134 kts 62°
2026-05-07 21:18 -5.28842 145.62156 4954 ft 133 kts 64°
2026-05-07 21:18 -5.28429 145.62983 4574 ft 132 kts 64°
2026-05-07 21:18 -5.28016 145.63803 4178 ft 131 kts 64°
2026-05-07 21:19 -5.27604 145.64616 3796 ft 130 kts 64°
2026-05-07 21:19 -5.27197 145.65420 3417 ft 129 kts 64°
2026-05-07 21:19 -5.26793 145.66216 3038 ft 127 kts 64°
2026-05-07 21:19 -5.26392 145.67005 2651 ft 126 kts 64°
2026-05-07 21:20 -5.25995 145.67788 2267 ft 126 kts 64°
2026-05-07 21:20 -5.25600 145.68567 1951 ft 122 kts 64°
2026-05-07 21:20 -5.25208 145.69324 1855 ft 125 kts 63°
2026-05-07 21:20 -5.24814 145.70097 1699 ft 124 kts 64°
2026-05-07 21:21 -5.24425 145.70868 1536 ft 123 kts 64°
2026-05-07 21:21 -5.24036 145.71634 1370 ft 123 kts 63°
2026-05-07 21:21 -5.23647 145.72400 1211 ft 123 kts 63°
2026-05-07 21:21 -5.23258 145.73167 1048 ft 123 kts 63°
2026-05-07 21:22 -5.22868 145.73934 886 ft 124 kts 63°
2026-05-07 21:22 -5.22478 145.74703 723 ft 122 kts 63°
2026-05-07 21:22 -5.22079 145.75404 584 ft 108 kts 45°
2026-05-07 21:22 -5.21669 145.75910 530 ft 86 kts 68°
2026-05-07 21:23 -5.21498 145.76456 385 ft 78 kts 72°
2026-05-07 21:23 -5.21363 145.76953 275 ft 72 kts 74°
2026-05-07 21:23 -5.21229 145.77428 204 ft 72 kts 72°
2026-05-07 21:23 -5.21099 145.77923 88 ft 73 kts 75°
2026-05-07 21:24 -5.20974 145.78394 20 ft 64 kts 75°
2026-05-07 21:24 -5.20914 145.78642 20 ft 10 kts 95°
2026-05-07 21:24 -5.20959 145.78671 21 ft 11 kts 155°
2026-05-07 21:24 -5.20961 145.78750 21 ft 7 kts 75°
2026-05-07 21:25 -5.20954 145.78778 22 ft 6 kts 79°
2026-05-07 21:25 -5.20976 145.78781 24 ft 6 kts 224°
2026-05-07 21:25 -5.20990 145.78772 21 ft 0 kts 210°
2026-05-07 21:47 -5.20991 145.78771 13 ft 0 kts 210°
2026-05-07 21:56 -5.20987 145.78758 21 ft 4 kts 344°
2026-05-07 21:56 -5.20969 145.78733 23 ft 7 kts 256°
2026-05-07 21:57 -5.20949 145.78668 21 ft 13 kts 346°
2026-05-07 21:57 -5.20916 145.78629 20 ft 11 kts 253°
2026-05-07 21:57 -5.20929 145.78553 19 ft 8 kts 50°
2026-05-07 21:57 -5.20897 145.78685 21 ft 38 kts 74°
2026-05-07 21:58 -5.20789 145.79078 27 ft 77 kts 74°
2026-05-07 21:58 -5.20640 145.79630 218 ft 82 kts 74°
2026-05-07 21:58 -5.20391 145.80102 462 ft 80 kts 26°
2026-05-07 21:58 -5.19812 145.79887 422 ft 115 kts 297°
2026-05-07 21:59 -5.19797 145.79097 652 ft 117 kts 244°
2026-05-07 21:59 -5.20308 145.78491 941 ft 114 kts 206°
2026-05-07 21:59 -5.21045 145.78234 1220 ft 113 kts 193°
2026-05-07 21:59 -5.21806 145.78014 1471 ft 116 kts 188°
2026-05-07 22:00 -5.22615 145.77792 1690 ft 121 kts 194°
2026-05-07 22:00 -5.23452 145.77558 1821 ft 134 kts 192°
2026-05-07 22:00 -5.24377 145.77306 1985 ft 137 kts 192°
2026-05-07 22:00 -5.25257 145.76965 2229 ft 136 kts 207°
2026-05-07 22:01 -5.26074 145.76504 2466 ft 134 kts 204°
2026-05-07 22:01 -5.26898 145.76075 2706 ft 133 kts 202°
2026-05-07 22:01 -5.27729 145.75678 2947 ft 132 kts 201°
2026-05-07 22:01 -5.28558 145.75296 3187 ft 131 kts 201°
2026-05-07 22:02 -5.29389 145.74918 3431 ft 132 kts 201°
2026-05-07 22:02 -5.30224 145.74538 3670 ft 132 kts 201°
2026-05-07 22:02 -5.31066 145.74156 3885 ft 135 kts 201°
2026-05-07 22:02 -5.31940 145.73759 4059 ft 140 kts 202°
2026-05-07 22:03 -5.32825 145.73356 4234 ft 143 kts 202°
2026-05-07 22:03 -5.33738 145.72943 4410 ft 145 kts 202°
2026-05-07 22:03 -5.34663 145.72523 4587 ft 147 kts 202°
2026-05-07 22:03 -5.35594 145.72100 4761 ft 147 kts 202°
2026-05-07 22:04 -5.36525 145.71679 4932 ft 147 kts 202°
2026-05-07 22:04 -5.37454 145.71258 5099 ft 146 kts 202°
2026-05-07 22:04 -5.38382 145.70837 5261 ft 146 kts 201°
2026-05-07 22:04 -5.39308 145.70418 5435 ft 146 kts 201°
2026-05-07 22:05 -5.40235 145.69998 5600 ft 146 kts 201°
2026-05-07 22:05 -5.41163 145.69577 5784 ft 146 kts 201°
2026-05-07 22:05 -5.42091 145.69156 5955 ft 146 kts 201°
2026-05-07 22:05 -5.43019 145.68735 6126 ft 146 kts 201°
2026-05-07 22:06 -5.43944 145.68316 6300 ft 146 kts 200°
2026-05-07 22:06 -5.44869 145.67897 6461 ft 146 kts 200°
2026-05-07 22:06 -5.45792 145.67478 6617 ft 146 kts 201°
2026-05-07 22:06 -5.46720 145.67058 6776 ft 147 kts 201°
2026-05-07 22:07 -5.47650 145.66636 6935 ft 147 kts 201°
2026-05-07 22:07 -5.48583 145.66214 7097 ft 147 kts 201°
2026-05-07 22:07 -5.49514 145.65791 7259 ft 147 kts 201°
2026-05-07 22:07 -5.50444 145.65369 7430 ft 147 kts 201°
2026-05-07 22:08 -5.51378 145.64946 7591 ft 148 kts 201°
2026-05-07 22:08 -5.52316 145.64521 7756 ft 148 kts 201°
2026-05-07 22:08 -5.53258 145.64093 7941 ft 149 kts 201°
2026-05-07 22:08 -5.54201 145.63666 8110 ft 149 kts 202°
2026-05-07 22:09 -5.55148 145.63236 8265 ft 150 kts 201°
2026-05-07 22:09 -5.56096 145.62806 8440 ft 149 kts 202°
2026-05-07 22:09 -5.57037 145.62380 8615 ft 149 kts 201°
2026-05-07 22:09 -5.57986 145.61950 8783 ft 150 kts 202°
2026-05-07 22:10 -5.58941 145.61516 8951 ft 151 kts 202°
2026-05-07 22:10 -5.59897 145.61083 9131 ft 151 kts 202°
2026-05-07 22:10 -5.60858 145.60647 9305 ft 151 kts 202°
2026-05-07 22:10 -5.61818 145.60211 9475 ft 151 kts 201°
2026-05-07 22:11 -5.62773 145.59779 9652 ft 150 kts 202°
2026-05-07 22:11 -5.63725 145.59347 9825 ft 150 kts 202°
2026-05-07 22:11 -5.64664 145.58920 9975 ft 151 kts 201°
2026-05-07 22:11 -5.65621 145.58485 10165 ft 151 kts 200°
2026-05-07 22:12 -5.66581 145.58046 10323 ft 151 kts 199°
2026-05-07 22:12 -5.67546 145.57613 10487 ft 152 kts 200°
2026-05-07 22:12 -5.68512 145.57175 10652 ft 152 kts 200°
2026-05-07 22:12 -5.69475 145.56737 10808 ft 152 kts 200°
2026-05-07 22:13 -5.70439 145.56300 10975 ft 152 kts 200°
2026-05-07 22:13 -5.71397 145.55865 11138 ft 151 kts 200°
2026-05-07 22:13 -5.72357 145.55430 11300 ft 152 kts 200°
2026-05-07 22:13 -5.73314 145.54995 11495 ft 150 kts 200°
2026-05-07 22:14 -5.74257 145.54568 11671 ft 148 kts 200°
2026-05-07 22:14 -5.75172 145.54162 11882 ft 146 kts 198°
2026-05-07 22:14 -5.76111 145.53852 12125 ft 139 kts 186°
2026-05-07 22:14 -5.77050 145.53719 12361 ft 134 kts 182°
2026-05-07 22:15 -5.77969 145.53631 12614 ft 131 kts 180°
2026-05-07 22:15 -5.78827 145.53329 12846 ft 132 kts 205°
2026-05-07 22:15 -5.79632 145.52910 13084 ft 129 kts 201°
2026-05-07 22:15 -5.80455 145.52510 13257 ft 134 kts 202°
2026-05-07 22:16 -5.81300 145.52102 13439 ft 135 kts 201°
2026-05-07 22:16 -5.82159 145.51686 13590 ft 139 kts 200°
2026-05-07 22:16 -5.83042 145.51262 13728 ft 143 kts 201°
2026-05-07 22:16 -5.83949 145.50825 13852 ft 146 kts 201°
2026-05-07 22:17 -5.84870 145.50380 13977 ft 149 kts 202°
2026-05-07 22:17 -5.85811 145.49929 14098 ft 151 kts 201°
2026-05-07 22:17 -5.86768 145.49466 14219 ft 154 kts 200°
2026-05-07 22:17 -5.87746 145.48999 14338 ft 157 kts 202°
2026-05-07 22:18 -5.88403 145.48683 14422 ft 159 kts 202°
2026-05-07 22:18 -5.90465 145.47685 14633 ft 170 kts 202°
2026-05-07 22:18 -5.91572 145.47160 14378 ft 180 kts 202°
2026-05-07 22:19 -5.92674 145.46614 13934 ft 174 kts 202°
2026-05-07 22:19 -5.93748 145.46090 13430 ft 170 kts 202°
2026-05-07 22:19 -5.95149 145.45421 12773 ft 166 kts 202°
2026-05-07 22:19 -5.95852 145.45084 12436 ft 165 kts 203°
2026-05-07 22:20 -5.96868 145.44593 11948 ft 160 kts 202°
2026-05-07 22:20 -5.97871 145.44100 11472 ft 161 kts 202°
2026-05-07 22:20 -5.98883 145.43628 11004 ft 160 kts 202°
2026-05-07 22:20 -5.99886 145.43149 10546 ft 160 kts 201°
2026-05-07 22:21 -6.00879 145.42666 10077 ft 157 kts 200°
2026-05-07 22:21 -6.01867 145.42195 9627 ft 158 kts 203°
2026-05-07 22:21 -6.02866 145.41713 9132 ft 159 kts 203°
2026-05-07 22:21 -6.03851 145.41237 8641 ft 156 kts 204°
2026-05-07 22:22 -6.04820 145.40766 8162 ft 154 kts 204°
2026-05-07 22:22 -6.05787 145.40302 7699 ft 154 kts 204°
2026-05-07 22:22 -6.06752 145.39839 7222 ft 153 kts 204°
2026-05-07 22:22 -6.07694 145.39384 6800 ft 152 kts 204°
2026-05-07 22:23 -6.08649 145.38929 6372 ft 152 kts 205°
2026-05-07 22:23 -6.09636 145.38613 5992 ft 145 kts 181°
2026-05-07 22:23 -6.10576 145.38701 5875 ft 124 kts 173°
2026-05-07 22:23 -6.11391 145.38826 5757 ft 111 kts 169°
2026-05-07 22:24 -6.11804 145.39339 5734 ft 107 kts 64°
2026-05-07 22:24 -6.11183 145.39398 5630 ft 104 kts 344°
2026-05-07 22:24 -6.10484 145.39282 5393 ft 100 kts 358°
2026-05-07 22:24 -6.09763 145.39246 5218 ft 103 kts 355°
2026-05-07 22:25 -6.09097 145.39200 5186 ft 88 kts 354°
2026-05-07 22:25 -6.08541 145.39155 5176 ft 71 kts 354°
2026-05-07 22:25 -6.08173 145.39121 5211 ft 38 kts 355°
2026-05-07 22:25 -6.08019 145.39121 5223 ft 6 kts 111°
2026-05-07 22:26 -6.08013 145.39165 5215 ft 6 kts 83°
2026-05-07 22:26 -6.07997 145.39210 5208 ft 14 kts 21°
2026-05-07 22:26 -6.07932 145.39224 5214 ft 8 kts 60°
2026-05-07 22:26 -6.07882 145.39258 5219 ft 11 kts
2026-05-07 22:27 -6.07870 145.39278 5221 ft 3 kts 182°
2026-05-07 22:27 -6.07878 145.39280 5222 ft 0 kts 175°